Time;durP1;ratioP1;P1;durP2;ratioP2;P2;SDS_P1;SDS_P2;PMS_P1;PMS_P2;Temp;Humidity;BMP_temperature;BMP_pressure;BME280_temperature;BME280_humidity;BME280_pressure;Samples;Min_cycle;Max_cycle;Signal;HPM_P1;HPM_P2
2023/07/23 00:01:20;;;;;;;9.87;4.60;;;;;;;14.61;64.54;100086.78;4222995;28;20411;-67
2023/07/23 00:03:47;;;;;;;9.27;4.20;;;;;;;14.56;64.82;100084.63;4208492;28;25117;-67
2023/07/23 00:06:13;;;;;;;11.90;5.07;;;;;;;14.54;65.26;100081.22;4215527;28;20264;-69
2023/07/23 00:08:40;;;;;;;11.03;4.30;;;;;;;14.59;65.22;100080.66;4211100;28;20515;-67
2023/07/23 00:11:06;;;;;;;11.83;4.33;;;;;;;14.77;64.07;100080.38;4215563;28;24993;-66
2023/07/23 00:13:33;;;;;;;9.33;4.93;;;;;;;14.83;63.93;100073.34;4206688;28;20232;-66
2023/07/23 00:15:59;;;;;;;10.77;4.47;;;;;;;14.82;63.91;100074.38;4205732;28;20321;-66
2023/07/23 00:18:26;;;;;;;12.13;4.20;;;;;;;14.77;63.82;100066.75;4208812;28;20331;-68
2023/07/23 00:20:53;;;;;;;7.33;4.00;;;;;;;14.84;63.46;100075.88;4211780;28;22059;-68
2023/07/23 00:23:20;;;;;;;8.37;4.77;;;;;;;14.92;63.11;100069.53;4204656;28;20347;-68
2023/07/23 00:25:46;;;;;;;8.07;4.10;;;;;;;14.93;62.93;100065.78;4206816;28;20267;-67
2023/07/23 00:28:13;;;;;;;8.23;4.43;;;;;;;14.86;63.16;100060.22;4208042;28;20241;-69
2023/07/23 00:30:39;;;;;;;11.23;4.90;;;;;;;14.88;63.10;100060.00;4209970;28;20224;-66
2023/07/23 00:33:06;;;;;;;11.10;4.40;;;;;;;14.86;63.09;100048.47;4213607;28;20378;-69
2023/07/23 00:35:32;;;;;;;12.57;4.30;;;;;;;14.83;63.30;100048.81;4205059;28;20287;-67
2023/07/23 00:37:59;;;;;;;7.73;4.30;;;;;;;14.92;62.90;100052.34;4217661;28;20298;-68
2023/07/23 00:40:26;;;;;;;10.50;4.70;;;;;;;14.97;62.90;100056.19;4224423;28;20566;-68
2023/07/23 00:42:52;;;;;;;8.07;4.17;;;;;;;14.94;63.19;100047.53;4211098;28;20245;-67
2023/07/23 00:45:19;;;;;;;10.77;4.40;;;;;;;14.85;63.01;100038.59;4212658;28;20614;-67
2023/07/23 00:47:46;;;;;;;9.63;4.50;;;;;;;14.93;62.86;100046.69;4207684;28;20296;-66
2023/07/23 00:50:14;;;;;;;6.90;4.37;;;;;;;14.79;63.19;100056.53;4207572;28;20237;-67
2023/07/23 00:52:41;;;;;;;7.87;4.20;;;;;;;14.92;62.70;100049.63;4213729;28;23627;-67
2023/07/23 00:55:09;;;;;;;7.53;4.70;;;;;;;15.02;62.57;100045.59;4215957;28;20230;-68
2023/07/23 00:57:36;;;;;;;10.87;3.90;;;;;;;15.01;62.29;100046.63;4214716;28;21099;-67
2023/07/23 01:00:05;;;;;;;7.57;4.60;;;;;;;14.96;62.81;100049.03;4211439;28;20232;-68
2023/07/23 01:02:32;;;;;;;7.97;4.30;;;;;;;14.87;62.67;100042.81;4214280;28;20446;-69
2023/07/23 01:04:59;;;;;;;8.53;4.27;;;;;;;14.79;63.43;100051.06;4209036;28;20251;-68
2023/07/23 01:07:27;;;;;;;8.50;4.60;;;;;;;14.65;64.04;100039.06;4211780;28;20291;-67
2023/07/23 01:09:54;;;;;;;6.27;4.00;;;;;;;14.61;64.13;100042.38;4213045;28;20251;-67
2023/07/23 01:12:21;;;;;;;11.87;4.43;;;;;;;14.47;64.69;100046.75;4207834;28;22907;-68
2023/07/23 01:14:48;;;;;;;9.80;4.10;;;;;;;14.37;64.86;100039.66;4209641;28;21079;-66
2023/07/23 01:17:15;;;;;;;9.10;3.70;;;;;;;14.25;65.48;100043.84;4210372;28;20248;-70
2023/07/23 01:19:41;;;;;;;8.50;4.40;;;;;;;14.24;65.80;100039.41;4212001;28;22569;-69
2023/07/23 01:22:08;;;;;;;10.20;4.80;;;;;;;14.27;66.67;100029.00;4211511;28;21550;-71
2023/07/23 01:24:35;;;;;;;7.27;4.10;;;;;;;14.15;67.37;100035.06;4203127;28;20407;-69
2023/07/23 01:27:02;;;;;;;9.03;4.30;;;;;;;14.10;67.56;100032.88;4216613;28;20295;-70
2023/07/23 01:29:29;;;;;;;10.63;4.67;;;;;;;14.23;66.80;100029.56;4204658;28;20239;-69
2023/07/23 01:31:56;;;;;;;10.43;4.87;;;;;;;14.28;66.36;100021.69;4196641;28;20296;-71
2023/07/23 01:34:22;;;;;;;9.23;4.53;;;;;;;14.25;66.20;100031.06;4193537;28;20288;-69
2023/07/23 01:36:49;;;;;;;7.60;4.57;;;;;;;14.41;65.17;100030.09;4201498;28;23750;-69
2023/07/23 01:39:16;;;;;;;10.97;4.30;;;;;;;14.56;64.40;100023.84;4195131;28;20237;-67
2023/07/23 01:41:42;;;;;;;12.97;4.40;;;;;;;14.47;64.63;100022.22;4193164;28;22217;-68
2023/07/23 01:44:09;;;;;;;8.33;4.80;;;;;;;14.36;65.33;100029.78;4213426;28;20548;-70
2023/07/23 01:46:36;;;;;;;8.50;4.13;;;;;;;14.29;65.54;100033.44;4203292;28;20336;-69
2023/07/23 01:49:02;;;;;;;10.30;4.77;;;;;;;14.27;66.12;100023.56;4207843;28;20245;-68
2023/07/23 01:51:31;;;;;;;13.83;4.47;;;;;;;14.35;65.50;100027.25;4210160;28;21133;-70
2023/07/23 01:53:59;;;;;;;8.70;4.10;;;;;;;14.17;66.16;100030.28;4212500;28;20239;-71
2023/07/23 01:56:26;;;;;;;7.53;4.40;;;;;;;14.05;66.75;100036.13;4212422;28;20308;-70
2023/07/23 01:58:52;;;;;;;11.10;4.57;;;;;;;13.89;67.77;100028.94;4211057;28;20246;-71
2023/07/23 02:01:19;;;;;;;6.23;4.27;;;;;;;13.83;68.66;100031.50;4213873;28;20832;-70
2023/07/23 02:03:45;;;;;;;7.40;4.53;;;;;;;13.78;68.75;100037.50;4213366;28;21977;-68
2023/07/23 02:06:12;;;;;;;9.40;4.80;;;;;;;13.72;69.16;100040.91;4208270;28;20402;-69
2023/07/23 02:08:38;;;;;;;9.93;4.87;;;;;;;13.76;69.60;100045.00;4213745;28;20267;-69
2023/07/23 02:11:06;;;;;;;8.33;4.67;;;;;;;13.75;69.34;100037.84;4209730;28;20307;-70
2023/07/23 02:13:32;;;;;;;10.47;4.73;;;;;;;13.85;68.30;100035.75;4205986;28;21943;-69
2023/07/23 02:15:59;;;;;;;8.20;4.60;;;;;;;13.79;68.29;100034.59;4209124;28;20235;-69
2023/07/23 02:18:26;;;;;;;8.97;4.70;;;;;;;13.74;68.64;100047.03;4204585;28;20244;-70
2023/07/23 02:20:53;;;;;;;8.13;4.60;;;;;;;13.68;68.66;100036.88;4206788;28;20508;-71
2023/07/23 02:23:19;;;;;;;10.33;4.73;;;;;;;13.67;68.64;100037.88;4207155;28;20227;-70
2023/07/23 02:25:49;;;;;;;8.10;4.60;;;;;;;13.62;69.24;100043.84;4217083;28;21126;-72
2023/07/23 02:28:16;;;;;;;7.37;4.47;;;;;;;13.57;69.69;100036.22;4211595;28;20229;-71
2023/07/23 02:30:43;;;;;;;10.40;5.23;;;;;;;13.61;69.47;100043.03;4204130;28;20232;-69
2023/07/23 02:33:09;;;;;;;6.80;4.60;;;;;;;13.68;69.09;100036.88;4210264;28;20237;-70
2023/07/23 02:35:36;;;;;;;9.60;4.53;;;;;;;13.84;67.87;100044.09;4207201;28;20235;-70
2023/07/23 02:38:04;;;;;;;12.33;4.80;;;;;;;13.77;67.98;100041.25;4204603;28;20283;-71
2023/07/23 02:40:32;;;;;;;8.93;4.70;;;;;;;13.72;68.32;100038.19;4198006;28;20239;-70
2023/07/23 02:42:59;;;;;;;9.87;4.83;;;;;;;13.73;68.33;100032.59;4206975;28;20546;-68
2023/07/23 02:45:26;;;;;;;8.67;4.57;;;;;;;13.89;67.22;100041.69;4199202;28;20283;-70
2023/07/23 02:47:52;;;;;;;9.73;4.27;;;;;;;13.94;66.80;100029.22;4210469;28;21136;-69
2023/07/23 02:50:19;;;;;;;13.43;5.43;;;;;;;14.16;65.51;100032.13;4216405;28;20301;-69
2023/07/23 02:52:46;;;;;;;8.13;4.73;;;;;;;14.03;66.04;100029.19;4222661;28;20236;-68
2023/07/23 02:55:12;;;;;;;10.37;4.97;;;;;;;14.08;65.95;100035.78;4216457;28;20259;-69
2023/07/23 02:57:39;;;;;;;6.50;4.17;;;;;;;14.26;65.27;100040.94;4230576;28;22755;-68
2023/07/23 03:00:06;;;;;;;10.13;4.83;;;;;;;14.25;65.04;100036.50;4223692;28;20924;-68
2023/07/23 03:02:33;;;;;;;7.97;4.37;;;;;;;14.22;65.12;100036.88;4228904;28;21538;-70
2023/07/23 03:05:00;;;;;;;7.60;4.93;;;;;;;14.34;64.71;100033.72;4230485;28;20245;-68
2023/07/23 03:07:26;;;;;;;11.60;4.70;;;;;;;14.32;64.45;100036.63;4252618;28;20287;-69
2023/07/23 03:09:53;;;;;;;8.47;4.50;;;;;;;14.31;64.52;100036.84;4229804;28;20329;-70
2023/07/23 03:12:20;;;;;;;9.93;4.53;;;;;;;14.36;64.35;100034.41;4264926;28;22323;-70
2023/07/23 03:14:46;;;;;;;7.10;4.20;;;;;;;14.32;64.49;100038.50;4255092;28;20711;-68
2023/07/23 03:17:13;;;;;;;11.40;4.87;;;;;;;14.40;64.04;100042.03;4239286;28;20714;-68
2023/07/23 03:19:40;;;;;;;7.47;4.00;;;;;;;14.41;64.01;100037.41;4242292;28;20234;-70
2023/07/23 03:22:07;;;;;;;18.43;4.83;;;;;;;14.54;63.56;100032.19;4260444;28;20243;-69
2023/07/23 03:24:34;;;;;;;9.17;4.10;;;;;;;14.65;63.39;100039.06;4230752;28;20318;-69
2023/07/23 03:27:00;;;;;;;9.63;4.43;;;;;;;14.65;63.24;100030.06;4223585;28;21337;-68
2023/07/23 03:29:27;;;;;;;9.77;4.17;;;;;;;14.73;62.76;100013.69;4235051;28;25738;-71
2023/07/23 03:31:54;;;;;;;7.80;4.17;;;;;;;14.69;63.26;100018.66;4230978;28;20621;-68
2023/07/23 03:34:20;;;;;;;8.17;4.60;;;;;;;14.74;62.76;100012.66;4240913;28;20287;-69
2023/07/23 03:36:47;;;;;;;8.43;4.20;;;;;;;14.69;62.24;100017.81;4228179;28;20238;-70
2023/07/23 03:39:17;;;;;;;9.00;4.40;;;;;;;14.73;62.21;100009.06;4230588;28;22823;-70
2023/07/23 03:41:45;;;;;;;7.50;4.27;;;;;;;14.81;61.99;100020.91;4220649;28;23454;-70
2023/07/23 03:44:12;;;;;;;7.77;4.03;;;;;;;14.79;62.04;100014.81;4221613;28;21730;-69
2023/07/23 03:46:44;;;;;;;9.73;4.90;;;;;;;14.88;61.83;100011.81;4238498;28;20240;-69
2023/07/23 03:49:11;;;;;;;10.83;4.57;;;;;;;14.95;61.28;100020.13;4216401;28;20245;-69
2023/07/23 03:51:38;;;;;;;12.80;4.63;;;;;;;15.10;60.91;100022.00;4215972;28;20234;-69
2023/07/23 03:54:04;;;;;;;7.40;4.30;;;;;;;15.18;60.48;100024.63;4225980;28;20237;-69
2023/07/23 03:56:31;;;;;;;9.13;4.33;;;;;;;15.19;60.36;100027.16;4219094;28;20323;-70
2023/07/23 03:58:57;;;;;;;9.30;4.20;;;;;;;15.19;60.40;100024.44;4213144;28;20305;-69
2023/07/23 04:01:25;;;;;;;9.30;4.40;;;;;;;15.17;60.81;100026.50;4218645;28;20241;-70
2023/07/23 04:03:52;;;;;;;8.50;3.87;;;;;;;15.12;60.47;100025.38;4216953;28;20650;-69
2023/07/23 04:06:19;;;;;;;10.03;4.27;;;;;;;15.37;59.37;100018.59;4217785;28;20402;-69
2023/07/23 04:08:46;;;;;;;8.53;4.40;;;;;;;15.51;58.82;100008.72;4209489;28;20368;-69
2023/07/23 04:11:12;;;;;;;9.03;4.07;;;;;;;15.52;58.64;100026.75;4197665;28;20298;-70
2023/07/23 04:13:39;;;;;;;6.83;3.77;;;;;;;15.67;58.27;100015.00;4219127;28;20241;-70
2023/07/23 04:16:10;;;;;;;8.73;4.50;;;;;;;15.83;57.68;100024.88;4204276;28;20233;-69
2023/07/23 04:18:46;;;;;;;11.00;4.13;;;;;;;15.96;57.62;100019.53;4211993;28;20231;-68
2023/07/23 04:21:14;;;;;;;10.27;4.30;;;;;;;15.95;57.79;100022.47;4209036;28;20244;-69
2023/07/23 04:23:40;;;;;;;7.30;4.07;;;;;;;15.92;57.50;100020.97;4209767;28;20269;-69
2023/07/23 04:26:07;;;;;;;11.53;3.87;;;;;;;16.03;57.21;100018.75;4208158;28;21918;-69
2023/07/23 04:28:34;;;;;;;7.20;4.23;;;;;;;16.08;57.21;100022.63;4219201;28;20228;-69
2023/07/23 04:31:00;;;;;;;8.37;4.40;;;;;;;16.03;57.15;100025.09;4226600;28;20302;-69
2023/07/23 04:33:27;;;;;;;7.43;3.97;;;;;;;16.08;57.18;100032.72;4209845;28;20232;-70
2023/07/23 04:35:53;;;;;;;7.57;3.90;;;;;;;16.17;57.01;100028.78;4212283;28;20869;-69
2023/07/23 04:38:20;;;;;;;11.27;4.13;;;;;;;16.11;57.33;100035.88;4227612;28;20307;-70
2023/07/23 04:40:48;;;;;;;5.90;4.20;;;;;;;16.21;57.35;100027.38;4220742;28;20247;-71
2023/07/23 04:43:14;;;;;;;9.47;3.87;;;;;;;16.35;56.94;100043.88;4213797;28;20317;-71
2023/07/23 04:45:41;;;;;;;5.40;3.37;;;;;;;16.52;56.41;100037.13;4210975;28;20232;-68
2023/07/23 04:48:10;;;;;;;6.63;3.70;;;;;;;16.70;56.07;100033.06;4208068;28;20314;-69
2023/07/23 04:50:37;;;;;;;8.67;4.50;;;;;;;16.74;55.75;100035.19;4210364;28;21955;-69
2023/07/23 04:53:04;;;;;;;7.20;3.80;;;;;;;16.82;55.08;100031.47;4220279;28;20247;-70
2023/07/23 04:55:32;;;;;;;7.40;3.43;;;;;;;16.88;54.88;100021.66;4213558;28;20235;-70
2023/07/23 04:57:59;;;;;;;6.30;3.67;;;;;;;17.03;54.36;100022.41;4203352;28;20541;-71
2023/07/23 05:00:27;;;;;;;8.23;4.00;;;;;;;17.11;54.04;100018.66;4215039;28;22296;-70
2023/07/23 05:02:53;;;;;;;11.97;3.90;;;;;;;17.10;53.79;100008.78;4213452;28;21925;-68
2023/07/23 05:05:20;;;;;;;6.50;3.57;;;;;;;17.34;52.84;100012.91;4206220;28;20359;-71
2023/07/23 05:07:46;;;;;;;7.10;3.40;;;;;;;17.63;52.01;100018.31;4212898;28;20247;-71
2023/07/23 05:10:13;;;;;;;10.97;3.53;;;;;;;17.83;51.79;100021.13;4211814;28;21948;-69
2023/07/23 05:12:40;;;;;;;10.10;4.20;;;;;;;17.80;51.94;100016.03;4216696;28;20223;-69
2023/07/23 05:15:13;;;;;;;6.43;3.60;;;;;;;17.95;51.49;100018.63;4197816;28;21112;-71
2023/07/23 05:17:41;;;;;;;6.33;3.10;;;;;;;17.99;51.47;100014.44;4212767;28;20236;-70
2023/07/23 05:20:09;;;;;;;6.43;3.60;;;;;;;18.26;50.38;100018.09;4212486;28;20237;-70
2023/07/23 05:22:36;;;;;;;5.27;3.23;;;;;;;18.29;50.58;100006.72;4207283;28;20237;-71
2023/07/23 05:25:04;;;;;;;6.70;3.07;;;;;;;18.57;50.11;100016.63;4211439;28;20229;-69
2023/07/23 05:27:30;;;;;;;8.03;3.20;;;;;;;18.44;50.52;100013.91;4206196;28;20616;-70
2023/07/23 05:29:57;;;;;;;5.43;3.13;;;;;;;18.80;49.85;100020.84;4208159;28;20280;-70
2023/07/23 05:32:24;;;;;;;12.67;3.60;;;;;;;18.64;50.75;100016.66;4220624;28;20558;-71
2023/07/23 05:34:53;;;;;;;8.87;3.83;;;;;;;18.91;49.86;100022.97;4221941;28;20236;-71
2023/07/23 05:37:20;;;;;;;10.00;3.20;;;;;;;19.26;50.45;100022.72;4210229;28;20243;-70
2023/07/23 05:39:48;;;;;;;5.47;3.17;;;;;;;19.77;48.51;100011.97;4212673;28;20233;-69
2023/07/23 05:42:14;;;;;;;7.80;3.57;;;;;;;19.75;47.90;100017.69;4225606;28;20235;-72
2023/07/23 05:44:41;;;;;;;5.63;3.30;;;;;;;19.78;48.10;100013.66;4191117;28;20331;-69
2023/07/23 05:47:07;;;;;;;5.47;3.13;;;;;;;19.94;47.28;100013.19;4205506;28;20253;-69
2023/07/23 05:49:34;;;;;;;4.50;2.70;;;;;;;19.91;47.61;100007.28;4217330;28;20720;-69
2023/07/23 05:52:01;;;;;;;4.70;3.40;;;;;;;20.02;47.44;100011.25;4213309;28;20388;-69
2023/07/23 05:54:28;;;;;;;4.53;2.90;;;;;;;20.17;47.70;100005.44;4194700;28;20258;-70
2023/07/23 05:56:54;;;;;;;10.40;3.50;;;;;;;20.59;46.63;100005.78;4201341;28;20393;-69
2023/07/23 05:59:21;;;;;;;7.53;3.30;;;;;;;20.99;45.82;100010.09;4228400;28;20245;-69
2023/07/23 06:01:48;;;;;;;6.67;3.60;;;;;;;21.09;45.63;100007.66;4201941;28;20581;-71
2023/07/23 06:04:15;;;;;;;6.17;3.67;;;;;;;21.00;45.63;100009.84;4190707;28;20318;-69
2023/07/23 06:06:41;;;;;;;4.60;3.23;;;;;;;21.15;45.24;100005.91;4228500;28;21623;-68
2023/07/23 06:09:08;;;;;;;6.07;3.40;;;;;;;21.37;44.49;99995.28;4234429;28;21266;-67
2023/07/23 06:11:35;;;;;;;7.57;3.50;;;;;;;21.67;43.82;100002.78;4226801;28;20287;-67
2023/07/23 06:14:03;;;;;;;5.03;2.97;;;;;;;22.35;42.40;100003.53;4216626;28;20228;-66
2023/07/23 06:16:30;;;;;;;7.53;3.43;;;;;;;23.18;40.37;100000.88;4225023;28;20293;-66
2023/07/23 06:18:57;;;;;;;7.57;3.40;;;;;;;23.52;39.34;99991.94;4218179;28;21276;-66
2023/07/23 06:21:24;;;;;;;5.73;3.30;;;;;;;23.44;39.45;99986.78;4213949;28;20236;-68
2023/07/23 06:23:52;;;;;;;6.07;3.57;;;;;;;24.48;38.04;99994.03;4216721;28;20223;-68
2023/07/23 06:26:18;;;;;;;8.60;3.40;;;;;;;25.65;35.80;99986.03;4218377;28;20558;-65
2023/07/23 06:28:45;;;;;;;6.73;3.37;;;;;;;26.37;34.61;99986.84;4223655;28;20423;-64
2023/07/23 06:31:11;;;;;;;6.47;3.60;;;;;;;26.99;33.40;99995.66;4222091;28;20233;-66
2023/07/23 06:33:38;;;;;;;10.73;3.90;;;;;;;27.02;33.31;99992.34;4230269;28;21798;-65
2023/07/23 06:36:05;;;;;;;4.78;3.22;;;;;;;27.58;32.12;99989.03;4250585;28;21719;-65
2023/07/23 06:38:31;;;;;;;8.57;3.63;;;;;;;28.01;31.00;99976.94;4284050;28;20310;-67
2023/07/23 06:40:59;;;;;;;4.75;2.75;;;;;;;27.83;30.97;99987.47;4274655;28;20237;-75
2023/07/23 06:43:26;;;;;;;5.95;3.53;;;;;;;27.73;30.83;99985.50;4266816;28;21069;-69
2023/07/23 06:45:53;;;;;;;4.82;3.03;;;;;;;27.01;32.02;99974.00;4249612;28;20338;-68
2023/07/23 06:48:20;;;;;;;5.17;3.23;;;;;;;25.94;33.37;99978.34;4240204;28;20730;-68
2023/07/23 06:50:47;;;;;;;5.93;3.10;;;;;;;25.35;34.71;99973.44;4224905;28;20237;-68
2023/07/23 06:53:14;;;;;;;3.53;2.90;;;;;;;24.88;36.00;99983.06;4236224;28;20288;-69
2023/07/23 06:56:01;;;;;;;7.07;3.07;;;;;;;23.99;37.31;99975.19;4251890;28;20322;-69
2023/07/23 06:58:30;;;;;;;5.33;2.80;;;;;;;23.79;37.65;99970.09;4250548;28;21885;-69
2023/07/23 07:00:57;;;;;;;4.10;3.00;;;;;;;24.09;36.90;99973.69;4232367;28;20480;-67
2023/07/23 07:03:25;;;;;;;6.93;3.33;;;;;;;24.18;37.14;99966.69;4231912;28;20233;-69
2023/07/23 07:05:52;;;;;;;6.73;3.23;;;;;;;24.26;37.34;99982.00;4230411;28;22200;-70
2023/07/23 07:08:18;;;;;;;7.33;3.20;;;;;;;24.44;36.37;99967.97;4237731;28;21657;-69
2023/07/23 07:10:46;;;;;;;4.00;2.67;;;;;;;25.06;35.56;99968.09;4234272;28;20304;-70
2023/07/23 07:13:13;;;;;;;7.63;2.70;;;;;;;24.83;35.07;99965.28;4240509;28;20247;-68
2023/07/23 07:15:41;;;;;;;6.80;2.83;;;;;;;24.93;34.84;99969.28;4236698;28;20605;-69
2023/07/23 07:18:08;;;;;;;4.77;2.87;;;;;;;26.22;32.82;99960.63;4265680;28;21918;-69
2023/07/23 07:20:35;;;;;;;5.30;2.60;;;;;;;26.94;31.71;99962.28;4288437;28;20575;-67
2023/07/23 07:23:02;;;;;;;5.17;2.63;;;;;;;28.26;30.19;99965.03;4283460;28;20267;-69
2023/07/23 07:25:28;;;;;;;4.70;2.90;;;;;;;27.74;30.54;99959.34;4237756;28;20454;-67
2023/07/23 07:27:55;;;;;;;5.00;2.57;;;;;;;26.97;31.46;99967.31;4239141;28;20792;-69
2023/07/23 07:30:22;;;;;;;8.32;2.92;;;;;;;25.91;32.75;99963.06;4230248;28;20234;-69
2023/07/23 07:32:48;;;;;;;4.20;2.70;;;;;;;24.84;34.66;99963.34;4209694;28;20291;-67
2023/07/23 07:35:15;;;;;;;5.03;2.50;;;;;;;24.63;34.93;99956.63;4217886;28;20290;-70
2023/07/23 07:37:42;;;;;;;4.90;2.50;;;;;;;24.71;35.10;99947.94;4263922;28;20249;-70
2023/07/23 07:40:10;;;;;;;7.03;2.43;;;;;;;25.60;33.86;99948.03;4245390;28;20336;-70
2023/07/23 07:42:37;;;;;;;5.37;2.20;;;;;;;26.04;33.12;99947.94;4236820;28;20861;-67
2023/07/23 07:45:04;;;;;;;5.75;2.42;;;;;;;26.19;32.88;99938.13;4241740;28;20827;-69
2023/07/23 07:47:31;;;;;;;3.50;2.30;;;;;;;26.06;32.81;99937.41;4241215;28;20643;-70
2023/07/23 07:49:57;;;;;;;8.32;2.80;;;;;;;25.93;32.92;99938.69;4257307;28;22673;-68
2023/07/23 07:52:26;;;;;;;3.17;2.10;;;;;;;26.41;32.04;99938.88;4278796;28;20912;-68
2023/07/23 07:54:52;;;;;;;3.60;2.30;;;;;;;26.39;32.55;99934.69;4275474;28;20236;-67
2023/07/23 07:57:19;;;;;;;3.63;2.37;;;;;;;25.94;33.09;99933.97;4247487;28;20255;-69
2023/07/23 07:59:46;;;;;;;7.03;2.40;;;;;;;25.55;33.72;99934.09;4234966;28;20290;-68
2023/07/23 08:02:13;;;;;;;8.70;2.60;;;;;;;25.18;34.06;99931.97;4249225;28;20240;-68
2023/07/23 08:04:40;;;;;;;7.90;3.07;;;;;;;25.29;34.03;99928.25;4243551;28;20237;-69
2023/07/23 08:07:07;;;;;;;8.13;2.88;;;;;;;25.87;33.26;99925.03;4221516;28;20234;-69
2023/07/23 08:09:34;;;;;;;6.03;2.40;;;;;;;25.70;33.28;99911.28;4235555;28;20448;-68
2023/07/23 08:12:02;;;;;;;2.87;2.40;;;;;;;25.57;32.97;99918.88;4236275;28;20387;-68
2023/07/23 08:14:29;;;;;;;7.30;2.30;;;;;;;25.68;33.07;99914.28;4252959;28;20235;-71
2023/07/23 08:16:56;;;;;;;5.18;2.40;;;;;;;26.12;32.69;99918.09;4260694;28;20304;-71
2023/07/23 08:19:23;;;;;;;4.00;2.60;;;;;;;26.38;32.46;99906.09;4269870;28;20354;-75
2023/07/23 08:21:50;;;;;;;4.50;2.47;;;;;;;26.37;31.94;99906.34;4260575;28;20313;-72
2023/07/23 08:24:17;;;;;;;4.63;2.60;;;;;;;25.97;31.98;99910.41;4229549;28;20243;-69
2023/07/23 08:26:46;;;;;;;3.85;2.20;;;;;;;26.29;31.70;99904.91;4260310;28;22101;-70
2023/07/23 08:29:16;;;;;;;6.50;2.20;;;;;;;25.95;32.33;99894.88;4230977;28;20286;-69
2023/07/23 08:31:44;;;;;;;5.43;2.23;;;;;;;25.55;32.84;99898.94;4219528;28;20514;-71
2023/07/23 08:34:11;;;;;;;4.82;2.03;;;;;;;25.21;33.47;99887.16;4247154;28;21102;-71
2023/07/23 08:36:37;;;;;;;3.08;2.13;;;;;;;25.23;33.30;99885.78;4262001;28;20314;-69
2023/07/23 08:39:04;;;;;;;4.70;2.70;;;;;;;25.30;33.36;99889.19;4274705;28;20321;-71
2023/07/23 08:42:05;;;;;;;6.50;2.50;;;;;;;25.61;33.11;99886.78;4279004;28;20241;-72
2023/07/23 08:44:56;;;;;;;7.35;2.80;;;;;;;25.11;34.06;99885.09;4235924;28;20318;-67
2023/07/23 08:47:25;;;;;;;5.90;3.07;;;;;;;24.91;35.01;99883.72;4243599;28;23380;-69
2023/07/23 08:49:52;;;;;;;8.70;2.40;;;;;;;25.04;34.87;99896.34;4230790;28;20841;-68
2023/07/23 08:52:20;;;;;;;6.45;2.50;;;;;;;25.36;34.49;99889.25;4226401;28;20844;-70
2023/07/23 08:54:47;;;;;;;4.70;2.28;;;;;;;25.63;34.17;99890.16;4231729;28;20405;-70
2023/07/23 08:57:14;;;;;;;5.43;2.58;;;;;;;25.81;33.75;99876.19;4230654;28;21044;-68
2023/07/23 08:59:42;;;;;;;4.80;2.40;;;;;;;26.09;33.59;99883.41;4252491;28;20331;-68
2023/07/23 09:02:11;;;;;;;9.05;2.53;;;;;;;25.86;33.98;99877.06;4257183;28;20248;-70
2023/07/23 09:04:38;;;;;;;5.38;2.17;;;;;;;26.13;34.00;99870.66;4205738;28;21147;-73
2023/07/23 09:07:09;;;;;;;5.90;2.60;;;;;;;26.18;33.81;99873.47;4223691;28;20495;-68
2023/07/23 09:09:36;;;;;;;3.58;2.40;;;;;;;25.98;33.47;99860.25;4228251;28;20464;-69
2023/07/23 09:12:03;;;;;;;3.65;2.50;;;;;;;26.38;32.41;99870.00;4227130;28;20311;-69
2023/07/23 09:14:40;;;;;;;8.15;2.67;;;;;;;26.77;32.47;99862.50;4219834;28;20433;-70
2023/07/23 09:17:18;;;;;;;6.03;2.60;;;;;;;26.59;32.44;99872.91;4223710;28;20239;-71
2023/07/23 09:19:46;;;;;;;7.85;2.38;;;;;;;26.49;32.75;99876.47;4216243;28;20236;-74
2023/07/23 09:22:12;;;;;;;9.13;3.00;;;;;;;26.17;33.64;99866.25;4218036;28;20245;-70
2023/07/23 09:24:39;;;;;;;4.32;2.40;;;;;;;26.66;33.45;99869.91;4227798;28;20240;-71
2023/07/23 09:27:10;;;;;;;7.57;3.00;;;;;;;26.86;32.85;99858.13;4220280;28;20308;-69
2023/07/23 09:29:39;;;;;;;6.03;2.90;;;;;;;26.76;32.93;99856.13;4213713;28;20459;-69
2023/07/23 09:32:22;;;;;;;6.27;3.17;;;;;;;27.04;32.80;99854.84;4236352;28;20391;-70
2023/07/23 09:34:49;;;;;;;9.00;3.10;;;;;;;27.30;32.69;99835.50;4233890;28;20421;-69
2023/07/23 09:37:17;;;;;;;4.83;2.77;;;;;;;27.62;32.28;99842.81;4240629;28;20242;-70
2023/07/23 09:39:44;;;;;;;9.50;3.03;;;;;;;26.97;33.20;99845.94;4205162;28;20282;-69
2023/07/23 09:42:11;;;;;;;5.32;3.10;;;;;;;26.57;33.57;99844.59;4226120;28;20248;-75
2023/07/23 09:44:41;;;;;;;6.70;3.08;;;;;;;26.53;33.87;99835.97;4219618;28;23769;-70
2023/07/23 09:47:08;;;;;;;6.03;2.70;;;;;;;26.66;33.93;99842.97;4194669;28;20238;-70
2023/07/23 09:49:36;;;;;;;8.63;2.80;;;;;;;26.84;33.78;99850.06;4223067;28;21499;-73
2023/07/23 09:52:07;;;;;;;7.20;3.00;;;;;;;26.29;34.65;99845.81;4218392;28;20378;-71
2023/07/23 09:54:35;;;;;;;6.80;2.93;;;;;;;26.56;34.34;99829.06;4224611;28;22066;-70
2023/07/23 09:57:02;;;;;;;5.30;3.00;;;;;;;26.89;33.56;99824.22;4230276;28;20235;-69
2023/07/23 09:59:30;;;;;;;7.30;2.67;;;;;;;27.19;33.28;99822.69;4209710;28;20233;-71
2023/07/23 10:01:57;;;;;;;4.25;2.50;;;;;;;26.74;33.92;99816.66;4252780;28;21172;-69
2023/07/23 10:04:26;;;;;;;8.43;2.90;;;;;;;26.45;34.03;99817.06;4223532;28;20536;-71
2023/07/23 10:06:53;;;;;;;6.07;2.90;;;;;;;26.57;34.18;99805.75;4234149;28;22144;-71
2023/07/23 10:09:20;;;;;;;6.00;2.80;;;;;;;26.95;33.81;99813.97;4229431;28;20501;-69
2023/07/23 10:11:48;;;;;;;6.32;3.10;;;;;;;27.23;33.50;99800.75;4217027;28;21864;-73
2023/07/23 10:14:15;;;;;;;5.75;2.92;;;;;;;27.57;32.49;99797.50;4232877;28;21877;-72
2023/07/23 10:16:43;;;;;;;8.75;3.13;;;;;;;27.01;32.84;99797.06;4221483;28;20560;-70
2023/07/23 10:19:11;;;;;;;4.87;2.80;;;;;;;27.19;32.23;99798.50;4204578;28;20392;-70
2023/07/23 10:21:51;;;;;;;7.03;2.70;;;;;;;27.51;31.81;99788.31;4213540;28;25518;-72
2023/07/23 10:24:17;;;;;;;6.03;2.63;;;;;;;27.46;30.41;99788.31;4245790;28;20986;-71
2023/07/23 10:26:48;;;;;;;5.72;2.75;;;;;;;27.39;30.89;99774.63;4204201;28;20675;-70
2023/07/23 10:29:21;;;;;;;6.37;2.50;;;;;;;27.50;31.27;99778.28;4218786;28;20324;-69
2023/07/23 10:31:48;;;;;;;4.75;2.60;;;;;;;26.95;32.93;99787.06;4232062;28;20231;-71
2023/07/23 10:34:26;;;;;;;5.82;2.97;;;;;;;27.01;32.02;99783.19;4224386;28;20631;-69
2023/07/23 10:37:17;;;;;;;3.88;2.50;;;;;;;27.04;32.25;99774.28;4218750;28;20235;-73
2023/07/23 10:39:55;;;;;;;5.17;2.80;;;;;;;27.24;32.08;99761.56;4221257;28;25348;-72
2023/07/23 10:42:28;;;;;;;4.60;2.65;;;;;;;27.12;31.92;99755.41;4218504;28;20233;-70
2023/07/23 10:45:16;;;;;;;4.10;2.72;;;;;;;27.00;32.41;99748.19;4232129;28;20326;-72
2023/07/23 10:47:50;;;;;;;5.53;2.72;;;;;;;27.04;32.48;99756.81;4225337;28;20240;-70
2023/07/23 10:50:18;;;;;;;8.73;2.85;;;;;;;26.77;32.86;99745.88;4216808;28;20234;-69
2023/07/23 10:52:52;;;;;;;5.80;2.77;;;;;;;26.83;32.93;99742.00;4212707;28;20223;-69
2023/07/23 10:55:33;;;;;;;5.03;2.53;;;;;;;26.61;33.43;99747.75;4235888;28;20999;-69
2023/07/23 10:58:01;;;;;;;7.13;2.92;;;;;;;26.68;33.11;99753.88;4211108;28;21702;-72
2023/07/23 11:00:30;;;;;;;5.17;2.83;;;;;;;26.54;33.31;99748.00;4226782;28;20737;-69
2023/07/23 11:02:56;;;;;;;4.43;2.30;;;;;;;26.56;33.42;99749.38;4260774;28;20243;-69
2023/07/23 11:05:26;;;;;;;6.33;3.30;;;;;;;26.31;33.33;99744.53;4221118;28;20232;-70
2023/07/23 11:08:23;;;;;;;5.83;3.00;;;;;;;25.76;34.14;99753.03;4226132;28;21173;-74
2023/07/23 11:11:01;;;;;;;6.33;3.00;;;;;;;25.73;34.60;99750.81;4240124;28;20247;-70
2023/07/23 11:13:30;;;;;;;5.77;3.20;;;;;;;25.75;34.53;99750.53;4236207;28;22907;-70
2023/07/23 11:15:57;;;;;;;6.85;2.78;;;;;;;25.76;34.68;99753.03;4214281;28;21987;-71
2023/07/23 11:18:28;;;;;;;5.67;2.83;;;;;;;25.78;34.87;99748.06;4226969;28;22852;-69
2023/07/23 11:20:57;;;;;;;9.57;2.95;;;;;;;25.81;34.87;99749.47;4227240;28;21087;-71
2023/07/23 11:23:25;;;;;;;7.27;3.13;;;;;;;25.39;35.17;99745.50;4219759;28;20247;-69
2023/07/23 11:25:53;;;;;;;8.97;3.10;;;;;;;24.89;36.28;99735.56;4223675;28;20247;-69
2023/07/23 11:28:21;;;;;;;10.53;2.90;;;;;;;24.61;36.75;99743.81;4219922;28;25661;-72
2023/07/23 11:30:50;;;;;;;5.63;3.13;;;;;;;24.93;35.95;99743.09;4207688;28;20379;-71